Terminal Aerodrome Forecast
Issued by NWS St Louis, MO

Home | Current Version | Previous Version | Text Only | Print | Product List | Glossary On
Versions: 1 2 3 4 5 6 7 8 9 10 11 12 13 14 15 16 17 18 19 20 21 22 23 24 25 26 27 28 29 30 31 32 33 34 35
493
FTUS43 KLSX 281550 AAC
TAFSTL
TAF AMD
KSTL 281550Z 2816/2918 14013G18KT P6SM -RA VCTS OVC080CB
     FM281900 13011KT P6SM BKN035
     FM282100 14010KT P6SM VCTS OVC025CB
     FM290000 17005KT P6SM OVC025
     FM290600 03004KT 4SM -SHRA VCTS OVC010CB
     FM291000 13009KT 3SM RA OVC009=

USA.gov is the U.S. government's official web portal to all federal, state and local government web resources and services.